Time;durP1;ratioP1;P1;durP2;ratioP2;P2;SDS_P1;SDS_P2;PMS_P1;PMS_P2;Temp;Humidity;BMP_temperature;BMP_pressure;BME280_temperature;BME280_humidity;BME280_pressure;Samples;Min_cycle;Max_cycle;Signal;HPM_P1;HPM_P2
2023/09/27 00:01:23;;;;;;;9.80;8.03;;;;;15.50;97545.00;;;;5028503;28;20211;-70
2023/09/27 00:04:13;;;;;;;12.57;8.57;;;;;15.70;97535.00;;;;5027006;28;20427;-70
2023/09/27 00:07:04;;;;;;;11.23;7.97;;;;;15.50;97534.00;;;;5029126;28;20205;-69
2023/09/27 00:09:53;;;;;;;11.80;9.00;;;;;15.60;97536.00;;;;5027082;28;20210;-70
2023/09/27 00:12:42;;;;;;;8.73;7.90;;;;;15.50;97540.00;;;;5028881;28;20713;-70
2023/09/27 00:15:31;;;;;;;13.27;8.13;;;;;15.50;97543.00;;;;5024164;28;20216;-69
2023/09/27 00:18:20;;;;;;;10.03;8.40;;;;;15.50;97539.00;;;;5029111;28;20753;-70
2023/09/27 00:21:10;;;;;;;10.03;8.57;;;;;15.70;97537.00;;;;5028287;28;20728;-70
2023/09/27 00:24:00;;;;;;;13.40;9.88;;;;;15.40;97530.00;;;;5026849;28;20788;-70
2023/09/27 00:26:49;;;;;;;11.55;9.35;;;;;15.40;97539.00;;;;5026430;28;20757;-69
2023/09/27 00:29:38;;;;;;;13.30;8.83;;;;;15.50;97547.00;;;;5028365;28;20578;-70
2023/09/27 00:32:27;;;;;;;12.55;9.60;;;;;15.20;97527.00;;;;5028080;28;20404;-70
2023/09/27 00:35:21;;;;;;;9.90;8.87;;;;;15.00;97533.00;;;;5026463;28;20391;-70
2023/09/27 00:38:10;;;;;;;12.30;7.23;;;;;15.10;97529.00;;;;5028730;28;20432;-70
2023/09/27 00:41:01;;;;;;;10.67;7.17;;;;;14.80;97526.00;;;;5028804;28;20209;-70
2023/09/27 00:43:50;;;;;;;7.93;7.13;;;;;14.90;97529.00;;;;5025296;28;20229;-70
2023/09/27 00:46:39;;;;;;;7.97;6.57;;;;;14.90;97533.00;;;;5028161;28;20193;-69
2023/09/27 00:49:28;;;;;;;10.63;8.37;;;;;14.70;97533.00;;;;5028824;28;20214;-69
2023/09/27 00:52:17;;;;;;;8.90;7.97;;;;;14.60;97529.00;;;;5028590;28;20703;-70
2023/09/27 00:55:07;;;;;;;13.73;8.57;;;;;14.70;97530.00;;;;5027459;28;20213;-69
2023/09/27 00:57:58;;;;;;;10.80;8.27;;;;;14.90;97533.00;;;;5027931;28;20209;-69
2023/09/27 01:00:48;;;;;;;12.90;8.63;;;;;15.00;97533.00;;;;5027681;28;20666;-70
2023/09/27 01:03:38;;;;;;;12.03;8.30;;;;;15.30;97527.00;;;;5028211;28;20232;-69
2023/09/27 01:06:27;;;;;;;12.70;7.93;;;;;15.10;97519.00;;;;5025020;28;20599;-70
2023/09/27 01:09:17;;;;;;;9.27;7.70;;;;;14.60;97527.00;;;;5031668;28;20213;-70
2023/09/27 01:12:06;;;;;;;8.43;7.47;;;;;14.70;97521.00;;;;5030962;28;20235;-70
2023/09/27 01:14:57;;;;;;;11.10;7.33;;;;;14.60;97523.00;;;;5031721;28;20196;-70
2023/09/27 01:17:55;;;;;;;10.87;8.40;;;;;14.50;97513.00;;;;5028252;28;20689;-69
2023/09/27 01:20:44;;;;;;;13.70;7.90;;;;;14.40;97517.00;;;;5031713;28;20213;-69
2023/09/27 01:23:36;;;;;;;11.17;8.80;;;;;14.30;97513.00;;;;5027321;28;20217;-69
2023/09/27 01:26:25;;;;;;;9.87;8.23;;;;;14.40;97512.00;;;;5032259;28;20197;-70
2023/09/27 01:29:14;;;;;;;9.77;8.63;;;;;14.80;97517.00;;;;5030336;28;20212;-69
2023/09/27 01:32:04;;;;;;;14.00;9.30;;;;;15.00;97511.00;;;;5031294;28;20271;-69
2023/09/27 01:34:53;;;;;;;13.93;8.73;;;;;14.90;97501.00;;;;5031467;28;20197;-69
2023/09/27 01:37:42;;;;;;;13.77;10.03;;;;;14.70;97502.00;;;;5027828;28;20239;-70
2023/09/27 01:40:33;;;;;;;10.33;9.23;;;;;14.60;97498.00;;;;5025801;28;20201;-69
2023/09/27 01:43:22;;;;;;;10.60;8.27;;;;;14.40;97502.00;;;;5029351;28;20221;-68
2023/09/27 01:46:11;;;;;;;13.60;9.37;;;;;14.10;97505.00;;;;5030475;28;20607;-69
2023/09/27 01:49:00;;;;;;;9.80;7.57;;;;;14.10;97505.00;;;;5032060;28;20227;-70
2023/09/27 01:51:50;;;;;;;14.33;9.00;;;;;14.40;97496.00;;;;5031737;28;20208;-70
2023/09/27 01:54:39;;;;;;;11.77;8.07;;;;;14.50;97500.00;;;;5029757;28;21023;-69
2023/09/27 01:57:29;;;;;;;10.20;8.37;;;;;14.50;97501.00;;;;5027007;28;20213;-70
2023/09/27 02:00:19;;;;;;;11.43;8.83;;;;;14.70;97498.00;;;;5031952;28;20205;-69
2023/09/27 02:03:08;;;;;;;13.20;9.53;;;;;14.80;97502.00;;;;5030956;28;20592;-69
2023/09/27 02:05:59;;;;;;;11.77;8.73;;;;;14.80;97500.00;;;;5030933;28;20731;-70
2023/09/27 02:08:48;;;;;;;20.43;9.80;;;;;14.60;97495.00;;;;5031660;28;20209;-70
2023/09/27 02:11:37;;;;;;;9.60;7.70;;;;;14.20;97493.00;;;;5031250;28;20197;-69
2023/09/27 02:14:27;;;;;;;11.43;8.30;;;;;13.90;97492.00;;;;5023943;28;20725;-70
2023/09/27 02:17:16;;;;;;;11.57;8.33;;;;;13.80;97495.00;;;;5028862;28;21579;-70
2023/09/27 02:20:07;;;;;;;15.13;8.17;;;;;14.10;97496.00;;;;5031340;28;20209;-69
2023/09/27 02:22:56;;;;;;;11.90;8.57;;;;;14.20;97498.00;;;;5029027;28;20302;-69
2023/09/27 02:25:46;;;;;;;11.80;9.47;;;;;14.20;97491.00;;;;5030135;28;20232;-70
2023/09/27 02:28:35;;;;;;;10.30;9.17;;;;;14.30;97491.00;;;;5031134;28;20568;-69
2023/09/27 02:31:25;;;;;;;10.93;8.10;;;;;14.30;97490.00;;;;5025156;28;20201;-70
2023/09/27 02:34:15;;;;;;;11.27;7.50;;;;;14.10;97489.00;;;;5029928;28;20573;-70
2023/09/27 02:37:04;;;;;;;9.93;7.97;;;;;14.20;97489.00;;;;5030020;28;20209;-69
2023/09/27 02:39:53;;;;;;;10.90;9.00;;;;;13.90;97488.00;;;;5030643;28;20259;-69
2023/09/27 02:42:43;;;;;;;13.80;7.93;;;;;14.00;97488.00;;;;5030588;28;20236;-70
2023/09/27 02:45:34;;;;;;;11.00;8.63;;;;;14.40;97488.00;;;;5025606;28;20233;-69
2023/09/27 02:48:24;;;;;;;13.67;8.73;;;;;14.20;97492.00;;;;5029964;28;20209;-69
2023/09/27 02:51:16;;;;;;;12.40;8.80;;;;;14.20;97486.00;;;;5029879;28;20678;-69
2023/09/27 02:54:05;;;;;;;12.07;9.17;;;;;13.90;97495.00;;;;5030674;28;20228;-70
2023/09/27 02:56:54;;;;;;;12.33;9.07;;;;;13.70;97487.00;;;;5027568;28;20212;-70
2023/09/27 02:59:43;;;;;;;10.80;8.03;;;;;13.60;97489.00;;;;5028760;28;20213;-69
2023/09/27 03:02:33;;;;;;;9.67;7.20;;;;;13.40;97486.00;;;;5026101;28;20228;-69
2023/09/27 03:05:23;;;;;;;8.90;8.00;;;;;13.50;97494.00;;;;5024259;28;20221;-69
2023/09/27 03:08:12;;;;;;;11.57;8.80;;;;;13.50;97486.00;;;;5030148;28;20205;-70
2023/09/27 03:11:04;;;;;;;12.27;7.63;;;;;13.60;97483.00;;;;5029061;28;20682;-69
2023/09/27 03:13:54;;;;;;;14.97;9.47;;;;;13.80;97490.00;;;;5025973;28;20224;-69
2023/09/27 03:16:43;;;;;;;14.77;9.43;;;;;14.10;97492.00;;;;5025550;28;20197;-70
2023/09/27 03:19:32;;;;;;;12.63;8.80;;;;;14.10;97495.00;;;;5029349;28;20840;-70
2023/09/27 03:22:23;;;;;;;14.03;9.47;;;;;14.20;97481.00;;;;5028329;28;20225;-70
2023/09/27 03:25:12;;;;;;;14.57;9.23;;;;;14.00;97486.00;;;;5028950;28;20228;-69
2023/09/27 03:28:01;;;;;;;10.67;9.43;;;;;13.20;97485.00;;;;5029334;28;20205;-70
2023/09/27 03:30:50;;;;;;;16.83;8.60;;;;;13.40;97487.00;;;;5026601;28;20205;-69
2023/09/27 03:33:39;;;;;;;12.20;8.80;;;;;13.30;97487.00;;;;5026878;28;20588;-67
2023/09/27 03:36:28;;;;;;;13.03;9.83;;;;;13.20;97489.00;;;;5022675;28;20594;-70
2023/09/27 03:39:22;;;;;;;13.63;9.10;;;;;13.30;97480.00;;;;5026333;28;20753;-70
2023/09/27 03:42:11;;;;;;;12.87;9.63;;;;;13.30;97492.00;;;;5029076;28;20224;-70
2023/09/27 03:45:00;;;;;;;12.13;10.00;;;;;13.40;97491.00;;;;5029376;28;20225;-69
2023/09/27 03:47:49;;;;;;;12.40;8.37;;;;;13.40;97487.00;;;;5029976;28;20193;-68
2023/09/27 03:50:38;;;;;;;14.53;9.67;;;;;13.50;97487.00;;;;5025380;28;20205;-70
2023/09/27 03:53:27;;;;;;;12.70;9.00;;;;;13.10;97491.00;;;;5029900;28;20221;-71
2023/09/27 03:56:18;;;;;;;13.50;9.70;;;;;12.90;97491.00;;;;5028380;28;20217;-69
2023/09/27 03:59:07;;;;;;;13.50;9.13;;;;;13.40;97491.00;;;;5028783;28;20205;-69
2023/09/27 04:01:56;;;;;;;12.87;9.17;;;;;13.30;97496.00;;;;5025884;28;20201;-70
2023/09/27 04:04:45;;;;;;;12.57;8.63;;;;;13.00;97492.00;;;;5028700;28;20208;-70
2023/09/27 04:07:34;;;;;;;9.90;8.50;;;;;13.00;97491.00;;;;5028238;28;20212;-69
2023/09/27 04:10:24;;;;;;;12.80;8.97;;;;;13.20;97488.00;;;;5025506;28;20209;-71
2023/09/27 04:13:15;;;;;;;15.63;10.03;;;;;13.20;97489.00;;;;5025007;28;20760;-70
2023/09/27 04:16:04;;;;;;;11.53;8.83;;;;;13.10;97491.00;;;;5021024;28;20604;-70
2023/09/27 04:18:53;;;;;;;10.80;8.07;;;;;13.20;97487.00;;;;5054569;23;20232;-87
2023/09/27 04:21:42;;;;;;;12.90;10.17;;;;;13.40;97496.00;;;;5051537;28;20304;-87
2023/09/27 04:24:31;;;;;;;14.27;7.97;;;;;12.90;97490.00;;;;5056219;28;20585;-85
2023/09/27 04:27:20;;;;;;;11.67;8.87;;;;;13.10;97485.00;;;;5054379;28;20212;-86
2023/09/27 04:30:13;;;;;;;10.57;8.70;;;;;13.10;97493.00;;;;5050243;28;20673;-84
2023/09/27 04:33:03;;;;;;;13.77;8.77;;;;;12.90;97488.00;;;;5054884;28;20200;-85
2023/09/27 04:35:52;;;;;;;15.50;9.97;;;;;13.40;97490.00;;;;5048800;28;20204;-86
2023/09/27 04:38:41;;;;;;;13.70;8.27;;;;;13.20;97497.00;;;;5050689;28;20192;-85
2023/09/27 04:41:30;;;;;;;11.60;10.07;;;;;12.70;97494.00;;;;5041197;28;20598;-86
2023/09/27 04:44:19;;;;;;;23.17;12.97;;;;;13.00;97499.00;;;;5042391;28;20209;-83
2023/09/27 04:47:09;;;;;;;27.23;17.13;;;;;13.10;97502.00;;;;5037282;28;20236;-85
2023/09/27 04:49:58;;;;;;;47.47;27.17;;;;;12.80;97501.00;;;;5048971;28;20196;-84
2023/09/27 04:52:47;;;;;;;24.53;15.97;;;;;13.00;97500.00;;;;5048215;28;20602;-84
2023/09/27 04:55:36;;;;;;;24.97;14.20;;;;;13.20;97501.00;;;;5035114;28;20197;-87
2023/09/27 04:58:26;;;;;;;25.73;15.07;;;;;13.30;97511.00;;;;5045175;28;20220;-86
2023/09/27 05:01:15;;;;;;;29.43;15.63;;;;;13.10;97503.00;;;;5035814;28;20220;-86
2023/09/27 05:04:06;;;;;;;33.43;22.33;;;;;12.90;97518.00;;;;5045746;28;20277;-85
2023/09/27 05:06:55;;;;;;;27.60;17.10;;;;;12.80;97517.00;;;;5042626;28;20313;-83
2023/09/27 05:09:44;;;;;;;19.17;15.00;;;;;13.00;97518.00;;;;5044236;28;20222;-86
2023/09/27 05:12:33;;;;;;;16.70;12.27;;;;;13.00;97510.00;;;;5037387;28;20224;-85
2023/09/27 05:15:22;;;;;;;12.93;10.50;;;;;12.80;97513.00;;;;5044024;28;20205;-85
2023/09/27 05:18:11;;;;;;;12.57;9.63;;;;;12.90;97514.00;;;;5034391;28;20681;-83
2023/09/27 05:21:07;;;;;;;12.43;10.07;;;;;13.00;97513.00;;;;5041315;28;20236;-85
2023/09/27 05:23:56;;;;;;;11.57;8.43;;;;;12.90;97518.00;;;;5039873;28;20347;-84
2023/09/27 05:26:45;;;;;;;17.57;10.13;;;;;12.80;97526.00;;;;5046525;28;20226;-83
2023/09/27 05:29:34;;;;;;;10.87;9.30;;;;;13.00;97531.00;;;;5045720;28;20216;-86
2023/09/27 05:32:23;;;;;;;14.37;9.60;;;;;13.30;97533.00;;;;5048905;28;20259;-86
2023/09/27 05:35:12;;;;;;;14.23;11.50;;;;;13.50;97533.00;;;;5040655;28;20263;-86
2023/09/27 05:38:03;;;;;;;14.37;10.40;;;;;13.30;97534.00;;;;5042856;28;20690;-86
2023/09/27 05:40:52;;;;;;;13.53;9.33;;;;;13.40;97537.00;;;;5042223;28;20287;-86
2023/09/27 05:43:44;;;;;;;12.73;9.57;;;;;13.20;97528.00;;;;5043361;28;20684;-84
2023/09/27 05:46:33;;;;;;;10.43;8.50;;;;;12.70;97530.00;;;;5039367;28;20221;-84
2023/09/27 05:49:24;;;;;;;14.23;9.63;;;;;13.00;97533.00;;;;5044529;28;20205;-84
2023/09/27 05:52:15;;;;;;;19.00;10.67;;;;;13.20;97534.00;;;;5045773;28;20226;-83
2023/09/27 05:55:07;;;;;;;19.67;10.40;;;;;13.30;97540.00;;;;5046721;28;20515;-83
2023/09/27 05:57:56;;;;;;;17.73;10.00;;;;;13.10;97536.00;;;;5048946;28;20218;-84
2023/09/27 06:00:47;;;;;;;14.20;11.20;;;;;13.10;97536.00;;;;5048829;28;20430;-86
2023/09/27 06:03:37;;;;;;;12.63;11.30;;;;;13.70;97537.00;;;;5045352;28;20205;-86
2023/09/27 06:06:26;;;;;;;13.70;11.00;;;;;13.60;97553.00;;;;5049020;28;20292;-82
2023/09/27 06:09:16;;;;;;;17.03;10.50;;;;;13.60;97543.00;;;;5050425;28;20201;-82
2023/09/27 06:12:07;;;;;;;14.63;11.03;;;;;13.80;97552.00;;;;5051325;28;20235;-85
2023/09/27 06:14:57;;;;;;;17.57;11.97;;;;;14.10;97540.00;;;;5049602;28;20197;-85
2023/09/27 06:17:48;;;;;;;15.47;12.03;;;;;14.50;97553.00;;;;5047818;28;20205;-86
2023/09/27 06:20:38;;;;;;;12.87;11.33;;;;;14.40;97555.00;;;;5050107;28;20292;-85
2023/09/27 06:23:28;;;;;;;17.87;11.80;;;;;14.50;97552.00;;;;5050650;28;20208;-85
2023/09/27 06:26:18;;;;;;;15.67;10.40;;;;;14.70;97560.00;;;;5038838;28;20595;-84
2023/09/27 06:29:09;;;;;;;16.20;10.63;;;;;14.30;97549.00;;;;5039377;28;20681;-85
2023/09/27 06:31:58;;;;;;;14.63;10.20;;;;;14.70;97554.00;;;;5043759;28;20593;-84
2023/09/27 06:34:47;;;;;;;13.57;11.17;;;;;14.80;97563.00;;;;5043080;28;20620;-84
2023/09/27 06:37:36;;;;;;;12.47;10.47;;;;;15.00;97569.00;;;;5041346;28;20677;-83
2023/09/27 06:40:25;;;;;;;17.83;11.90;;;;;14.90;97573.00;;;;5047486;28;20201;-83
2023/09/27 06:43:14;;;;;;;18.00;11.43;;;;;15.40;97577.00;;;;5050766;28;20597;-83
2023/09/27 06:46:12;;;;;;;16.43;11.23;;;;;15.40;97578.00;;;;5050683;28;20227;-83
2023/09/27 06:49:03;;;;;;;13.90;11.57;;;;;15.70;97584.00;;;;5050977;28;20281;-83
2023/09/27 06:51:53;;;;;;;16.87;11.60;;;;;16.00;97582.00;;;;5045710;28;20270;-85
2023/09/27 06:54:42;;;;;;;23.10;12.20;;;;;16.00;97589.00;;;;5046502;28;20196;-83
2023/09/27 06:57:31;;;;;;;16.17;10.70;;;;;15.60;97593.00;;;;5047937;28;20196;-86
2023/09/27 07:00:24;;;;;;;13.03;10.93;;;;;16.10;97594.00;;;;5045104;28;20432;-84
2023/09/27 07:03:15;;;;;;;17.20;11.40;;;;;16.10;97593.00;;;;5047899;28;20282;-82
2023/09/27 07:06:05;;;;;;;15.47;10.47;;;;;16.20;97590.00;;;;5047701;28;20681;-84
2023/09/27 07:08:57;;;;;;;16.10;12.17;;;;;16.40;97601.00;;;;5049255;28;20627;-83
2023/09/27 07:11:46;;;;;;;14.73;10.83;;;;;16.70;97591.00;;;;5047367;28;20261;-84
2023/09/27 07:14:36;;;;;;;15.37;9.83;;;;;16.60;97591.00;;;;5047676;28;20598;-83
2023/09/27 07:17:25;;;;;;;14.73;10.77;;;;;16.60;97600.00;;;;5048585;28;20251;-84
2023/09/27 07:20:23;;;;;;;16.40;10.80;;;;;17.10;97595.00;;;;5046219;28;20236;-84
2023/09/27 07:23:15;;;;;;;15.93;11.20;;;;;17.10;97602.00;;;;5047679;28;20197;-84
2023/09/27 07:26:05;;;;;;;15.30;11.20;;;;;17.50;97595.00;;;;5048320;28;20238;-83
2023/09/27 07:28:54;;;;;;;14.63;11.73;;;;;17.80;97592.00;;;;5046871;28;20215;-86
2023/09/27 07:31:43;;;;;;;13.93;9.70;;;;;18.30;97603.00;;;;5050992;28;20224;-85
2023/09/27 07:34:32;;;;;;;14.90;10.63;;;;;18.30;97609.00;;;;5046773;28;20685;-85
2023/09/27 07:37:23;;;;;;;14.50;10.53;;;;;18.70;97610.00;;;;5043570;28;20204;-85
2023/09/27 07:40:13;;;;;;;13.73;9.53;;;;;19.00;97612.00;;;;5045304;28;20205;-84
2023/09/27 07:43:03;;;;;;;19.90;11.57;;;;;18.80;97616.00;;;;5042913;28;20204;-83
2023/09/27 07:45:54;;;;;;;15.17;11.13;;;;;19.10;97617.00;;;;5036168;28;20583;-83
2023/09/27 07:48:44;;;;;;;11.67;8.63;;;;;19.20;97618.00;;;;5049556;28;20630;-84
2023/09/27 07:51:33;;;;;;;16.53;8.80;;;;;19.50;97607.00;;;;5047214;28;20701;-86
2023/09/27 07:54:24;;;;;;;12.43;8.43;;;;;19.50;97609.00;;;;5039596;28;20201;-83
2023/09/27 07:57:14;;;;;;;10.97;8.20;;;;;19.40;97616.00;;;;5044424;28;20232;-86
2023/09/27 08:00:08;;;;;;;13.10;8.50;;;;;19.90;97630.00;;;;5041297;28;20201;-85
2023/09/27 08:02:58;;;;;;;11.30;8.67;;;;;19.90;97631.00;;;;5044766;28;20553;-83
2023/09/27 08:05:49;;;;;;;10.43;8.10;;;;;19.90;97641.00;;;;5045406;28;20220;-84
2023/09/27 08:08:38;;;;;;;13.90;9.93;;;;;19.60;97641.00;;;;5046597;28;20623;-85
2023/09/27 08:11:28;;;;;;;11.13;8.10;;;;;19.50;97632.00;;;;5044115;28;20220;-86
2023/09/27 08:14:19;;;;;;;10.77;8.03;;;;;19.50;97641.00;;;;5046743;28;20580;-84
2023/09/27 08:17:08;;;;;;;21.80;9.00;;;;;19.90;97646.00;;;;5036119;28;20293;-85
2023/09/27 08:19:58;;;;;;;16.37;10.03;;;;;19.90;97634.00;;;;5045159;28;20228;-84
2023/09/27 08:22:47;;;;;;;11.37;8.30;;;;;20.00;97643.00;;;;5045623;28;20204;-83
2023/09/27 08:25:37;;;;;;;12.47;8.30;;;;;20.20;97634.00;;;;5045295;28;20196;-84
2023/09/27 08:28:29;;;;;;;11.67;8.17;;;;;20.40;97638.00;;;;5040920;28;20886;-86
2023/09/27 08:31:19;;;;;;;9.70;8.50;;;;;21.00;97640.00;;;;5039748;28;20235;-85
2023/09/27 08:34:09;;;;;;;10.27;8.53;;;;;21.40;97641.00;;;;5043236;28;20635;-84
2023/09/27 08:36:58;;;;;;;14.47;8.20;;;;;21.60;97639.00;;;;5047647;28;20196;-87
2023/09/27 08:39:47;;;;;;;12.93;9.23;;;;;21.80;97635.00;;;;5056804;28;20640;-87
2023/09/27 08:42:36;;;;;;;11.50;9.13;;;;;22.00;97650.00;;;;5050353;28;20211;-86
2023/09/27 08:45:28;;;;;;;12.93;8.53;;;;;22.30;97639.00;;;;5046819;28;20200;-85
2023/09/27 08:48:20;;;;;;;8.60;7.70;;;;;22.50;97644.00;;;;5048605;28;20217;-86
2023/09/27 08:51:09;;;;;;;15.33;9.13;;;;;22.60;97640.00;;;;5048271;28;20232;-86
2023/09/27 08:53:58;;;;;;;10.30;7.97;;;;;22.90;97643.00;;;;5052587;28;20197;-87
2023/09/27 08:56:50;;;;;;;10.67;8.17;;;;;22.70;97638.00;;;;5053509;28;20696;-85
2023/09/27 08:59:40;;;;;;;12.53;8.47;;;;;23.10;97640.00;;;;5055380;28;20208;-85
2023/09/27 09:02:31;;;;;;;9.33;7.83;;;;;23.30;97638.00;;;;5046587;28;20228;-85
2023/09/27 09:05:22;;;;;;;11.10;8.23;;;;;23.30;97645.00;;;;5047041;28;20534;-86
2023/09/27 09:08:11;;;;;;;9.73;8.03;;;;;23.50;97641.00;;;;5049668;28;20235;-84
2023/09/27 09:11:01;;;;;;;13.73;8.43;;;;;23.60;97646.00;;;;5049371;28;20711;-85
2023/09/27 09:13:57;;;;;;;10.37;7.60;;;;;23.70;97650.00;;;;5043491;28;20531;-84
2023/09/27 09:16:53;;;;;;;10.77;7.53;;;;;24.00;97636.00;;;;5038990;28;20206;-83
2023/09/27 09:19:43;;;;;;;9.80;7.33;;;;;24.20;97643.00;;;;5039621;28;20216;-88
2023/09/27 09:22:44;;;;;;;13.87;7.50;;;;;24.50;97644.00;;;;5043530;28;20224;-84
2023/09/27 09:25:43;;;;;;;10.63;6.80;;;;;24.90;97646.00;;;;5043760;28;20579;-84
2023/09/27 09:28:32;;;;;;;12.27;7.80;;;;;25.00;97646.00;;;;5048632;28;20596;-85
2023/09/27 09:31:25;;;;;;;11.03;7.63;;;;;25.00;97651.00;;;;5052065;28;20597;-86
2023/09/27 09:34:14;;;;;;;14.03;7.97;;;;;25.30;97649.00;;;;5051914;28;20472;-86
2023/09/27 09:37:04;;;;;;;11.43;7.20;;;;;25.40;97643.00;;;;5049969;28;20211;-86
2023/09/27 09:39:55;;;;;;;8.83;7.03;;;;;25.70;97648.00;;;;5048021;28;20696;-86
2023/09/27 09:42:45;;;;;;;10.70;7.43;;;;;25.80;97640.00;;;;5049497;28;20209;-86
2023/09/27 09:45:44;;;;;;;9.87;7.50;;;;;26.10;97649.00;;;;5047446;28;20203;-86
2023/09/27 09:48:34;;;;;;;9.63;7.50;;;;;26.30;97643.00;;;;5052113;28;20224;-86
2023/09/27 09:51:24;;;;;;;8.57;6.67;;;;;26.30;97640.00;;;;5044719;28;20225;-86
2023/09/27 09:54:22;;;;;;;10.03;6.60;;;;;26.60;97638.00;;;;5043247;28;20211;-85
2023/09/27 09:57:13;;;;;;;10.10;6.53;;;;;27.00;97646.00;;;;5044504;28;20487;-86
2023/09/27 10:00:12;;;;;;;11.83;6.60;;;;;27.10;97644.00;;;;5051536;28;20669;-86
2023/09/27 10:03:03;;;;;;;7.13;6.10;;;;;27.50;97647.00;;;;5047978;28;20211;-84
2023/09/27 10:05:53;;;;;;;10.90;5.37;;;;;27.70;97637.00;;;;5048281;28;20204;-86
2023/09/27 10:08:43;;;;;;;6.70;5.80;;;;;27.80;97630.00;;;;5051557;28;20229;-86
2023/09/27 10:11:36;;;;;;;7.57;5.90;;;;;27.50;97631.00;;;;5053787;28;20228;-84
2023/09/27 10:14:25;;;;;;;13.00;6.13;;;;;27.50;97631.00;;;;5050750;28;20201;-84
2023/09/27 10:17:22;;;;;;;8.13;5.93;;;;;28.20;97636.00;;;;5050942;28;20254;-86
2023/09/27 10:20:17;;;;;;;10.57;6.73;;;;;28.10;97628.00;;;;5043666;28;20674;-83
2023/09/27 10:23:11;;;;;;;12.07;6.60;;;;;28.10;97630.00;;;;5046536;28;20675;-84
2023/09/27 10:26:18;;;;;;;9.13;5.50;;;;;28.50;97627.00;;;;5046323;28;20681;-83
2023/09/27 10:29:15;;;;;;;7.67;5.30;;;;;28.00;97621.00;;;;5041995;28;20231;-84
2023/09/27 10:32:19;;;;;;;11.43;6.10;;;;;29.10;97617.00;;;;5047995;28;20305;-83
2023/09/27 10:35:18;;;;;;;9.30;5.87;;;;;29.50;97612.00;;;;5045792;28;20250;-84
2023/09/27 10:38:10;;;;;;;9.83;5.43;;;;;29.80;97607.00;;;;5047816;28;20304;-84
2023/09/27 10:40:59;;;;;;;7.10;5.17;;;;;30.20;97607.00;;;;5043157;28;20726;-84
2023/09/27 10:43:48;;;;;;;13.10;5.63;;;;;30.80;97607.00;;;;5049898;28;20596;-86
2023/09/27 10:46:47;;;;;;;8.63;4.50;;;;;31.10;97599.00;;;;5041015;28;20210;-87
2023/09/27 10:49:41;;;;;;;8.70;4.67;;;;;31.30;97591.00;;;;5054564;28;20217;-86
2023/09/27 10:52:30;;;;;;;10.00;5.13;;;;;31.70;97586.00;;;;5050883;28;20224;-87
2023/09/27 10:55:19;;;;;;;9.80;5.00;;;;;32.00;97578.00;;;;5053900;28;20203;-86
2023/09/27 10:58:09;;;;;;;10.35;4.88;;;;;32.20;97583.00;;;;5050066;28;20210;-84
2023/09/27 11:01:01;;;;;;;7.80;4.90;;;;;32.40;97577.00;;;;5049502;28;20229;-84
2023/09/27 11:03:58;;;;;;;5.00;3.92;;;;;32.40;97578.00;;;;5047497;28;20206;-84
2023/09/27 11:06:47;;;;;;;4.38;3.97;;;;;32.90;97579.00;;;;5044544;28;20274;-85
2023/09/27 11:09:44;;;;;;;7.95;5.35;;;;;33.00;97567.00;;;;5049797;28;20231;-85
2023/09/27 11:12:34;;;;;;;6.53;4.82;;;;;33.50;97567.00;;;;5040491;28;20307;-84
2023/09/27 11:15:24;;;;;;;9.40;3.85;;;;;33.30;97563.00;;;;5040764;28;20204;-85
2023/09/27 11:18:13;;;;;;;9.75;4.40;;;;;33.50;97557.00;;;;5040974;28;20211;-84
2023/09/27 11:21:10;;;;;;;7.75;4.30;;;;;32.50;97553.00;;;;5049208;28;20261;-85
2023/09/27 11:24:00;;;;;;;8.73;4.45;;;;;33.20;97548.00;;;;5047614;28;20211;-84
2023/09/27 11:26:50;;;;;;;9.95;4.13;;;;;32.70;97542.00;;;;5046767;28;20212;-84
2023/09/27 11:29:39;;;;;;;7.25;4.20;;;;;33.60;97543.00;;;;5046304;28;20695;-84
2023/09/27 11:32:28;;;;;;;7.05;4.68;;;;;33.50;97537.00;;;;5049205;28;20226;-85
2023/09/27 11:35:20;;;;;;;8.13;3.65;;;;;34.00;97533.00;;;;5046653;28;20211;-84
2023/09/27 11:38:12;;;;;;;8.80;3.67;;;;;32.10;97528.00;;;;5042244;28;20211;-83
2023/09/27 11:41:07;;;;;;;5.35;3.60;;;;;32.50;97533.00;;;;5041844;28;20220;-83
2023/09/27 11:43:58;;;;;;;3.83;3.42;;;;;31.30;97525.00;;;;5044341;28;20200;-83
2023/09/27 11:46:49;;;;;;;8.73;3.83;;;;;29.40;97521.00;;;;5043510;28;20207;-82
2023/09/27 11:49:40;;;;;;;14.55;4.35;;;;;28.90;97505.00;;;;5044313;28;20231;-82
2023/09/27 11:52:29;;;;;;;7.20;3.53;;;;;28.80;97517.00;;;;5042945;28;20228;-82
2023/09/27 11:55:19;;;;;;;7.10;3.70;;;;;29.00;97505.00;;;;5042970;28;20215;-81
2023/09/27 11:58:09;;;;;;;4.40;3.87;;;;;30.20;97515.00;;;;5042140;28;20327;-83
2023/09/27 12:00:58;;;;;;;7.13;3.73;;;;;31.90;97514.00;;;;5042908;28;20219;-83
2023/09/27 12:03:47;;;;;;;11.50;3.85;;;;;32.60;97510.00;;;;5041416;28;20250;-83
2023/09/27 12:06:37;;;;;;;5.30;3.95;;;;;32.90;97519.00;;;;5045238;28;20219;-82
2023/09/27 12:09:26;;;;;;;8.20;3.30;;;;;33.40;97515.00;;;;5045568;28;20687;-83
2023/09/27 12:12:17;;;;;;;6.72;4.70;;;;;33.50;97513.00;;;;5042724;28;20242;-84
2023/09/27 12:15:07;;;;;;;10.48;4.55;;;;;35.20;97500.00;;;;5045030;28;20210;-84
2023/09/27 12:17:56;;;;;;;9.05;3.50;;;31.30;72.60;36.00;97503.00;;;;5039163;28;20231;-83
2023/09/27 12:20:45;;;;;;;5.68;3.60;;;31.20;73.00;33.50;97503.00;;;;5041720;28;20671;-83
2023/09/27 12:23:35;;;;;;;9.80;3.00;;;31.60;69.00;34.00;97499.00;;;;5039334;28;20216;-84
2023/09/27 12:26:23;;;;;;;8.57;3.33;;;31.40;67.20;33.00;97500.00;;;;5040249;28;20254;-84
2023/09/27 12:29:14;;;;;;;10.00;3.63;;;31.00;64.40;32.00;97496.00;;;;5041844;28;20224;-83
2023/09/27 12:32:03;;;;;;;9.73;4.15;;;30.30;64.50;33.00;97490.00;;;;5042529;28;20236;-83
2023/09/27 12:34:52;;;;;;;9.15;3.53;;;30.30;65.00;31.90;97484.00;;;;5042795;28;20683;-82
2023/09/27 12:37:41;;;;;;;10.45;3.65;;;30.10;64.60;32.20;97481.00;;;;5043413;28;20213;-83
2023/09/27 12:40:33;;;;;;;3.45;3.15;;;29.80;65.00;32.30;97474.00;;;;5040928;28;20200;-83
2023/09/27 12:43:22;;;;;;;10.15;3.42;;;29.80;64.70;33.80;97478.00;;;;5042427;28;20219;-82
2023/09/27 12:46:13;;;;;;;9.98;3.75;;;29.90;66.40;34.90;97480.00;;;;5041900;28;20231;-82
2023/09/27 12:49:03;;;;;;;11.65;4.07;;;30.60;69.50;35.20;97469.00;;;;5041809;28;20200;-83
2023/09/27 12:51:52;;;;;;;6.45;2.78;;;31.10;68.10;33.10;97470.00;;;;5039652;28;20216;-82
2023/09/27 12:54:41;;;;;;;7.00;3.35;;;30.20;57.80;30.00;97453.00;;;;5043174;28;20208;-83
2023/09/27 12:57:30;;;;;;;7.40;3.50;;;29.50;58.80;29.90;97449.00;;;;5040554;28;20223;-83
2023/09/27 13:00:20;;;;;;;7.47;4.72;;;28.30;59.40;30.70;97460.00;;;;5044185;28;20203;-83
2023/09/27 13:03:10;;;;;;;7.82;2.75;;;28.60;60.00;31.50;97450.00;;;;5055898;28;20226;-86
2023/09/27 13:05:59;;;;;;;7.25;3.15;;;28.60;60.90;30.60;97456.00;;;;5049888;28;20671;-84
2023/09/27 13:08:48;;;;;;;3.20;2.85;;;;;29.40;97459.00;;;;5050585;28;20198;-81
2023/09/27 13:11:37;;;;;;;6.22;3.83;;;28.20;59.10;31.10;97451.00;;;;5047634;28;20221;-85
2023/09/27 13:14:26;;;;;;;5.53;3.40;;;28.00;61.20;31.00;97456.00;;;;5044208;28;20216;-83
2023/09/27 13:17:15;;;;;;;10.43;3.30;;;28.20;61.10;32.10;97459.00;;;;5042318;28;20217;-85
2023/09/27 13:20:09;;;;;;;9.40;3.35;;;28.60;63.70;33.40;97462.00;;;;5047885;28;20210;-83
2023/09/27 13:22:58;;;;;;;6.65;3.17;;;29.30;62.70;33.10;97453.00;;;;5045844;28;20208;-83
2023/09/27 13:25:53;;;;;;;4.72;2.92;;;29.70;60.50;33.50;97447.00;;;;5045418;28;20203;-84
2023/09/27 13:28:42;;;;;;;4.55;3.63;;;30.20;59.40;34.30;97448.00;;;;5044312;28;20568;-84
2023/09/27 13:31:36;;;;;;;7.30;3.30;;;30.40;59.10;36.10;97450.00;;;;5047301;28;20235;-86
2023/09/27 13:34:25;;;;;;;5.47;2.85;;;31.10;60.90;37.10;97448.00;;;;5054695;28;20196;-86
2023/09/27 13:37:17;;;;;;;6.28;3.05;;;31.90;59.40;37.30;97449.00;;;;5052253;28;20200;-85
2023/09/27 13:40:12;;;;;;;6.28;3.78;;;32.70;57.40;37.80;97451.00;;;;5050420;28;20196;-85
2023/09/27 13:43:01;;;;;;;5.30;3.25;;;33.30;55.80;38.50;97445.00;;;;5045821;28;20217;-85
2023/09/27 13:45:51;;;;;;;2.97;2.63;;;33.90;55.30;38.50;97442.00;;;;5045584;28;20680;-84
2023/09/27 13:48:40;;;;;;;3.03;2.72;;;34.30;53.60;38.60;97440.00;;;;5046238;28;20189;-85
2023/09/27 13:51:34;;;;;;;3.42;3.10;;;34.60;53.90;39.00;97438.00;;;;5045944;28;20250;-85